sensor_id;sensor_type;location;lat;lon;timestamp;pressure;altitude;pressure_sealevel;temperature;humidity
37206;BME280;23099;42.636;23.198;2022-08-25T00:01:54;91942.16;;;18.96;96.52
37206;BME280;23099;42.636;23.198;2022-08-25T00:04:21;91942.88;;;19.00;95.90
37206;BME280;23099;42.636;23.198;2022-08-25T00:06:48;91943.69;;;18.97;96.64
37206;BME280;23099;42.636;23.198;2022-08-25T00:09:18;91938.63;;;18.99;96.68
37206;BME280;23099;42.636;23.198;2022-08-25T00:11:45;91947.47;;;19.03;96.38
37206;BME280;23099;42.636;23.198;2022-08-25T00:14:14;91939.00;;;19.01;96.10
37206;BME280;23099;42.636;23.198;2022-08-25T00:16:41;91940.16;;;19.00;96.45
37206;BME280;23099;42.636;23.198;2022-08-25T00:19:16;91939.25;;;18.87;96.49
37206;BME280;23099;42.636;23.198;2022-08-25T00:21:44;91939.06;;;18.98;96.80
37206;BME280;23099;42.636;23.198;2022-08-25T00:24:14;91936.66;;;19.03;96.28
37206;BME280;23099;42.636;23.198;2022-08-25T00:26:44;91939.63;;;19.09;96.05
37206;BME280;23099;42.636;23.198;2022-08-25T00:29:11;91946.16;;;19.12;95.61
37206;BME280;23099;42.636;23.198;2022-08-25T00:31:39;91933.94;;;19.03;96.05
37206;BME280;23099;42.636;23.198;2022-08-25T00:34:08;91933.09;;;19.06;95.97
37206;BME280;23099;42.636;23.198;2022-08-25T00:36:37;91927.66;;;19.06;95.82
37206;BME280;23099;42.636;23.198;2022-08-25T00:39:04;91910.19;;;19.11;95.84
37206;BME280;23099;42.636;23.198;2022-08-25T00:41:32;91918.44;;;19.04;95.67
37206;BME280;23099;42.636;23.198;2022-08-25T00:44:02;91912.72;;;18.98;96.21
37206;BME280;23099;42.636;23.198;2022-08-25T00:46:32;91914.69;;;18.98;95.96
37206;BME280;23099;42.636;23.198;2022-08-25T00:49:03;91924.28;;;19.02;96.02
37206;BME280;23099;42.636;23.198;2022-08-25T00:51:36;91925.88;;;19.00;96.40
37206;BME280;23099;42.636;23.198;2022-08-25T00:54:05;91936.75;;;18.96;96.25
37206;BME280;23099;42.636;23.198;2022-08-25T00:56:32;91935.22;;;18.95;96.39
37206;BME280;23099;42.636;23.198;2022-08-25T00:59:00;91941.34;;;18.99;96.30
37206;BME280;23099;42.636;23.198;2022-08-25T01:01:28;91941.28;;;19.03;95.80
37206;BME280;23099;42.636;23.198;2022-08-25T01:03:55;91943.25;;;19.02;95.81
37206;BME280;23099;42.636;23.198;2022-08-25T01:06:22;91932.81;;;19.01;96.29
37206;BME280;23099;42.636;23.198;2022-08-25T01:08:51;91933.09;;;19.06;96.19
37206;BME280;23099;42.636;23.198;2022-08-25T01:11:19;91933.03;;;19.10;95.70
37206;BME280;23099;42.636;23.198;2022-08-25T01:13:48;91922.97;;;19.11;95.36
37206;BME280;23099;42.636;23.198;2022-08-25T01:16:17;91908.22;;;19.12;95.66
37206;BME280;23099;42.636;23.198;2022-08-25T01:18:47;91913.94;;;19.17;95.11
37206;BME280;23099;42.636;23.198;2022-08-25T01:21:19;91912.41;;;19.16;95.16
37206;BME280;23099;42.636;23.198;2022-08-25T01:23:47;91910.06;;;19.18;94.68
37206;BME280;23099;42.636;23.198;2022-08-25T01:26:16;91920.13;;;19.18;95.22
37206;BME280;23099;42.636;23.198;2022-08-25T01:28:46;91908.03;;;19.22;94.94
37206;BME280;23099;42.636;23.198;2022-08-25T01:31:31;91917.28;;;19.25;94.54
37206;BME280;23099;42.636;23.198;2022-08-25T01:33:59;91922.28;;;19.26;94.08
37206;BME280;23099;42.636;23.198;2022-08-25T01:36:28;91921.47;;;19.29;94.24
37206;BME280;23099;42.636;23.198;2022-08-25T01:38:55;91910.56;;;19.33;93.69
37206;BME280;23099;42.636;23.198;2022-08-25T01:41:30;91913.59;;;19.35;93.25
37206;BME280;23099;42.636;23.198;2022-08-25T01:43:57;91912.81;;;19.34;93.73
37206;BME280;23099;42.636;23.198;2022-08-25T01:46:24;91922.06;;;19.37;93.63
37206;BME280;23099;42.636;23.198;2022-08-25T01:48:51;91918.47;;;19.43;92.83
37206;BME280;23099;42.636;23.198;2022-08-25T01:51:19;91928.91;;;19.45;92.73
37206;BME280;23099;42.636;23.198;2022-08-25T01:53:50;91926.97;;;19.46;92.92
37206;BME280;23099;42.636;23.198;2022-08-25T01:56:17;91927.66;;;19.50;92.71
37206;BME280;23099;42.636;23.198;2022-08-25T01:58:46;91921.81;;;19.51;92.71
37206;BME280;23099;42.636;23.198;2022-08-25T02:01:14;91923.34;;;19.52;92.23
37206;BME280;23099;42.636;23.198;2022-08-25T02:03:44;91924.94;;;19.50;92.49
37206;BME280;23099;42.636;23.198;2022-08-25T02:06:12;91929.59;;;19.49;92.29
37206;BME280;23099;42.636;23.198;2022-08-25T02:08:40;91919.09;;;19.51;92.97
37206;BME280;23099;42.636;23.198;2022-08-25T02:11:10;91917.94;;;19.52;92.58
37206;BME280;23099;42.636;23.198;2022-08-25T02:13:38;91917.94;;;19.52;93.09
37206;BME280;23099;42.636;23.198;2022-08-25T02:16:07;91914.88;;;19.50;92.74
37206;BME280;23099;42.636;23.198;2022-08-25T02:18:34;91925.28;;;19.52;93.11
37206;BME280;23099;42.636;23.198;2022-08-25T02:21:01;91928.78;;;19.52;93.09
37206;BME280;23099;42.636;23.198;2022-08-25T02:23:29;91922.16;;;19.53;93.60
37206;BME280;23099;42.636;23.198;2022-08-25T02:25:56;91922.16;;;19.53;93.83
37206;BME280;23099;42.636;23.198;2022-08-25T02:28:25;91912.50;;;19.52;93.86
37206;BME280;23099;42.636;23.198;2022-08-25T02:30:52;91918.34;;;19.51;93.78
37206;BME280;23099;42.636;23.198;2022-08-25T02:33:18;91909.38;;;19.54;93.90
37206;BME280;23099;42.636;23.198;2022-08-25T02:35:46;91911.69;;;19.55;93.74
37206;BME280;23099;42.636;23.198;2022-08-25T02:38:13;91913.22;;;19.56;93.31
37206;BME280;23099;42.636;23.198;2022-08-25T02:40:40;91913.97;;;19.57;93.58
37206;BME280;23099;42.636;23.198;2022-08-25T02:43:07;91913.97;;;19.57;93.47
37206;BME280;23099;42.636;23.198;2022-08-25T02:45:35;91919.41;;;19.57;93.65
37206;BME280;23099;42.636;23.198;2022-08-25T02:48:02;91918.22;;;19.58;93.71
37206;BME280;23099;42.636;23.198;2022-08-25T02:50:29;91919.75;;;19.59;93.53
37206;BME280;23099;42.636;23.198;2022-08-25T02:52:57;91928.66;;;19.59;93.46
37206;BME280;23099;42.636;23.198;2022-08-25T02:55:24;91923.22;;;19.59;93.09
37206;BME280;23099;42.636;23.198;2022-08-25T02:57:50;91925.44;;;19.64;93.12
37206;BME280;23099;42.636;23.198;2022-08-25T03:00:17;91930.50;;;19.62;93.07
37206;BME280;23099;42.636;23.198;2022-08-25T03:02:46;91928.66;;;19.59;93.40
37206;BME280;23099;42.636;23.198;2022-08-25T03:05:13;91936.38;;;19.61;93.82
37206;BME280;23099;42.636;23.198;2022-08-25T03:07:41;91935.19;;;19.62;93.39
37206;BME280;23099;42.636;23.198;2022-08-25T03:10:11;91937.91;;;19.62;93.76
37206;BME280;23099;42.636;23.198;2022-08-25T03:12:39;91942.63;;;19.58;93.24
37206;BME280;23099;42.636;23.198;2022-08-25T03:15:07;91932.19;;;19.56;93.48
37206;BME280;23099;42.636;23.198;2022-08-25T03:17:34;91936.50;;;19.54;93.09
37206;BME280;23099;42.636;23.198;2022-08-25T03:20:03;91937.97;;;19.58;93.26
37206;BME280;23099;42.636;23.198;2022-08-25T03:22:30;91941.16;;;19.53;93.15
37206;BME280;23099;42.636;23.198;2022-08-25T03:24:57;91935.78;;;19.50;93.08
37206;BME280;23099;42.636;23.198;2022-08-25T03:27:44;91939.66;;;19.49;92.93
37206;BME280;23099;42.636;23.198;2022-08-25T03:30:11;91936.25;;;19.45;93.24
37206;BME280;23099;42.636;23.198;2022-08-25T03:32:38;91926.38;;;19.34;93.47
37206;BME280;23099;42.636;23.198;2022-08-25T03:35:07;91938.13;;;19.28;93.81
37206;BME280;23099;42.636;23.198;2022-08-25T03:37:34;91920.25;;;19.11;94.41
37206;BME280;23099;42.636;23.198;2022-08-25T03:40:02;91937.56;;;19.17;94.62
37206;BME280;23099;42.636;23.198;2022-08-25T03:42:30;91939.84;;;19.18;94.72
37206;BME280;23099;42.636;23.198;2022-08-25T03:44:57;91946.78;;;19.19;95.11
37206;BME280;23099;42.636;23.198;2022-08-25T03:47:24;91939.50;;;19.16;94.74
37206;BME280;23099;42.636;23.198;2022-08-25T03:49:53;91932.97;;;19.14;94.86
37206;BME280;23099;42.636;23.198;2022-08-25T03:52:22;91941.91;;;19.11;94.98
37206;BME280;23099;42.636;23.198;2022-08-25T03:54:48;91934.91;;;19.13;95.35
37206;BME280;23099;42.636;23.198;2022-08-25T03:57:15;91931.22;;;19.03;95.64
37206;BME280;23099;42.636;23.198;2022-08-25T03:59:42;91929.19;;;19.07;95.69
37206;BME280;23099;42.636;23.198;2022-08-25T04:02:08;91925.66;;;19.11;95.43
37206;BME280;23099;42.636;23.198;2022-08-25T04:04:35;91924.50;;;19.12;95.46
37206;BME280;23099;42.636;23.198;2022-08-25T04:07:02;91926.06;;;19.09;95.43
37206;BME280;23099;42.636;23.198;2022-08-25T04:09:30;91924.84;;;19.14;95.20
37206;BME280;23099;42.636;23.198;2022-08-25T04:11:57;91936.09;;;19.12;95.29
37206;BME280;23099;42.636;23.198;2022-08-25T04:14:24;91926.13;;;19.05;95.48
37206;BME280;23099;42.636;23.198;2022-08-25T04:16:51;91929.97;;;19.08;95.83
37206;BME280;23099;42.636;23.198;2022-08-25T04:19:18;91938.81;;;19.12;95.83
37206;BME280;23099;42.636;23.198;2022-08-25T04:21:45;91939.16;;;19.14;95.74
37206;BME280;23099;42.636;23.198;2022-08-25T04:24:13;91937.97;;;19.15;96.04
37206;BME280;23099;42.636;23.198;2022-08-25T04:26:44;91934.78;;;19.20;96.10
37206;BME280;23099;42.636;23.198;2022-08-25T04:29:13;91928.94;;;19.22;96.31
37206;BME280;23099;42.636;23.198;2022-08-25T04:31:41;91921.56;;;19.22;95.97
37206;BME280;23099;42.636;23.198;2022-08-25T04:34:09;91920.41;;;19.23;96.46
37206;BME280;23099;42.636;23.198;2022-08-25T04:36:36;91922.56;;;19.32;96.10
37206;BME280;23099;42.636;23.198;2022-08-25T04:39:02;91922.47;;;19.35;95.85
37206;BME280;23099;42.636;23.198;2022-08-25T04:41:29;91913.53;;;19.38;95.57
37206;BME280;23099;42.636;23.198;2022-08-25T04:43:59;91914.28;;;19.39;96.05
37206;BME280;23099;42.636;23.198;2022-08-25T04:46:29;91927.00;;;19.42;96.18
37206;BME280;23099;42.636;23.198;2022-08-25T04:48:58;91921.19;;;19.43;96.05
37206;BME280;23099;42.636;23.198;2022-08-25T04:51:27;91925.34;;;19.48;95.51
37206;BME280;23099;42.636;23.198;2022-08-25T04:53:57;91924.19;;;19.49;95.72
37206;BME280;23099;42.636;23.198;2022-08-25T04:56:25;91921.00;;;19.54;95.87
37206;BME280;23099;42.636;23.198;2022-08-25T04:58:52;91915.56;;;19.54;96.16
37206;BME280;23099;42.636;23.198;2022-08-25T05:01:26;91920.28;;;19.50;95.73
37206;BME280;23099;42.636;23.198;2022-08-25T05:03:55;91920.28;;;19.50;96.62
37206;BME280;23099;42.636;23.198;2022-08-25T05:06:24;91919.41;;;19.57;96.11
37206;BME280;23099;42.636;23.198;2022-08-25T05:08:51;91918.97;;;19.58;95.77
37206;BME280;23099;42.636;23.198;2022-08-25T05:11:19;91921.94;;;19.64;95.95
37206;BME280;23099;42.636;23.198;2022-08-25T05:13:47;91924.25;;;19.65;95.71
37206;BME280;23099;42.636;23.198;2022-08-25T05:16:15;91930.78;;;19.68;95.56
37206;BME280;23099;42.636;23.198;2022-08-25T05:18:44;91926.91;;;19.69;95.61
37206;BME280;23099;42.636;23.198;2022-08-25T05:21:11;91925.66;;;19.73;95.78
37206;BME280;23099;42.636;23.198;2022-08-25T05:23:39;91924.59;;;19.67;95.34
37206;BME280;23099;42.636;23.198;2022-08-25T05:26:08;91921.00;;;19.74;95.13
37206;BME280;23099;42.636;23.198;2022-08-25T05:28:36;91924.13;;;19.72;94.36
37206;BME280;23099;42.636;23.198;2022-08-25T05:31:05;91930.97;;;19.77;94.26
37206;BME280;23099;42.636;23.198;2022-08-25T05:33:33;91923.53;;;19.81;94.22
37206;BME280;23099;42.636;23.198;2022-08-25T05:36:02;91921.88;;;19.87;93.83
37206;BME280;23099;42.636;23.198;2022-08-25T05:38:29;91915.25;;;19.88;93.75
37206;BME280;23099;42.636;23.198;2022-08-25T05:40:56;91915.63;;;19.90;93.31
37206;BME280;23099;42.636;23.198;2022-08-25T05:43:23;91934.84;;;19.96;92.28
37206;BME280;23099;42.636;23.198;2022-08-25T05:45:52;91928.66;;;19.95;92.17
37206;BME280;23099;42.636;23.198;2022-08-25T05:48:19;91923.59;;;19.97;92.13
37206;BME280;23099;42.636;23.198;2022-08-25T05:50:50;91922.34;;;20.02;91.96
37206;BME280;23099;42.636;23.198;2022-08-25T05:53:18;91922.00;;;20.00;92.36
37206;BME280;23099;42.636;23.198;2022-08-25T05:55:45;91919.69;;;19.98;91.10
37206;BME280;23099;42.636;23.198;2022-08-25T05:58:12;91919.63;;;20.02;90.72
37206;BME280;23099;42.636;23.198;2022-08-25T06:00:39;91926.94;;;20.05;90.74
37206;BME280;23099;42.636;23.198;2022-08-25T06:03:06;91924.47;;;20.10;90.93
37206;BME280;23099;42.636;23.198;2022-08-25T06:05:32;91924.81;;;20.12;90.49
37206;BME280;23099;42.636;23.198;2022-08-25T06:07:59;91925.66;;;20.09;90.43
37206;BME280;23099;42.636;23.198;2022-08-25T06:10:27;91917.91;;;20.08;90.68
37206;BME280;23099;42.636;23.198;2022-08-25T06:12:54;91929.06;;;20.13;90.24
37206;BME280;23099;42.636;23.198;2022-08-25T06:15:23;91925.09;;;20.18;90.46
37206;BME280;23099;42.636;23.198;2022-08-25T06:17:50;91928.13;;;20.20;90.22
37206;BME280;23099;42.636;23.198;2022-08-25T06:20:19;91920.75;;;20.21;90.20
37206;BME280;23099;42.636;23.198;2022-08-25T06:22:47;91924.22;;;20.21;89.11
37206;BME280;23099;42.636;23.198;2022-08-25T06:25:18;91917.25;;;20.20;89.73
37206;BME280;23099;42.636;23.198;2022-08-25T06:27:46;91919.56;;;20.22;89.21
37206;BME280;23099;42.636;23.198;2022-08-25T06:30:16;91924.22;;;20.21;88.68
37206;BME280;23099;42.636;23.198;2022-08-25T06:32:44;91926.84;;;20.25;89.20
37206;BME280;23099;42.636;23.198;2022-08-25T06:35:13;91922.81;;;20.33;88.28
37206;BME280;23099;42.636;23.198;2022-08-25T06:37:41;91917.38;;;20.33;88.55
37206;BME280;23099;42.636;23.198;2022-08-25T06:40:09;91922.03;;;20.32;88.21
37206;BME280;23099;42.636;23.198;2022-08-25T06:42:36;91913.84;;;20.36;88.23
37206;BME280;23099;42.636;23.198;2022-08-25T06:45:06;91920.72;;;20.40;87.80
37206;BME280;23099;42.636;23.198;2022-08-25T06:47:33;91909.78;;;20.44;87.74
37206;BME280;23099;42.636;23.198;2022-08-25T06:50:00;91923.69;;;20.46;87.12
37206;BME280;23099;42.636;23.198;2022-08-25T06:52:28;91909.94;;;20.53;87.05
37206;BME280;23099;42.636;23.198;2022-08-25T06:54:55;91912.56;;;20.57;86.98
37206;BME280;23099;42.636;23.198;2022-08-25T06:57:21;91917.41;;;20.65;86.75
37206;BME280;23099;42.636;23.198;2022-08-25T06:59:48;91928.94;;;20.69;87.12
37206;BME280;23099;42.636;23.198;2022-08-25T07:02:16;91908.91;;;20.63;87.29
37206;BME280;23099;42.636;23.198;2022-08-25T07:04:44;91927.69;;;20.74;85.73
37206;BME280;23099;42.636;23.198;2022-08-25T07:07:11;91918.94;;;20.82;85.70
37206;BME280;23099;42.636;23.198;2022-08-25T07:09:38;91919.94;;;20.89;85.06
37206;BME280;23099;42.636;23.198;2022-08-25T07:12:06;91912.66;;;20.86;85.22
37206;BME280;23099;42.636;23.198;2022-08-25T07:14:33;91904.00;;;20.91;85.16
37206;BME280;23099;42.636;23.198;2022-08-25T07:17:00;91922.38;;;20.99;84.65
37206;BME280;23099;42.636;23.198;2022-08-25T07:19:28;91919.75;;;20.96;84.22
37206;BME280;23099;42.636;23.198;2022-08-25T07:21:55;91922.19;;;21.06;83.86
37206;BME280;23099;42.636;23.198;2022-08-25T07:24:22;91924.50;;;21.08;83.79
37206;BME280;23099;42.636;23.198;2022-08-25T07:26:49;91924.25;;;21.18;84.39
37206;BME280;23099;42.636;23.198;2022-08-25T07:29:18;91921.78;;;21.24;83.73
37206;BME280;23099;42.636;23.198;2022-08-25T07:31:45;91923.88;;;21.33;82.89
37206;BME280;23099;42.636;23.198;2022-08-25T07:34:11;91921.56;;;21.47;83.33
37206;BME280;23099;42.636;23.198;2022-08-25T07:36:57;91913.44;;;21.60;82.27
37206;BME280;23099;42.636;23.198;2022-08-25T07:39:25;91921.28;;;21.71;82.51
37206;BME280;23099;42.636;23.198;2022-08-25T07:41:52;91916.31;;;21.82;83.05
37206;BME280;23099;42.636;23.198;2022-08-25T07:44:20;91913.16;;;21.96;82.24
37206;BME280;23099;42.636;23.198;2022-08-25T07:46:48;91922.25;;;22.06;79.93
37206;BME280;23099;42.636;23.198;2022-08-25T07:49:15;91915.50;;;22.10;79.88
37206;BME280;23099;42.636;23.198;2022-08-25T07:51:42;91914.53;;;22.17;79.39
37206;BME280;23099;42.636;23.198;2022-08-25T07:54:10;91918.22;;;22.23;78.79
37206;BME280;23099;42.636;23.198;2022-08-25T07:56:37;91919.88;;;22.20;78.31
37206;BME280;23099;42.636;23.198;2022-08-25T07:59:06;91920.41;;;22.15;78.60
37206;BME280;23099;42.636;23.198;2022-08-25T08:01:33;91910.38;;;22.12;79.37
37206;BME280;23099;42.636;23.198;2022-08-25T08:04:00;91916.69;;;22.09;78.51
37206;BME280;23099;42.636;23.198;2022-08-25T08:06:27;91905.28;;;22.14;78.40
37206;BME280;23099;42.636;23.198;2022-08-25T08:08:55;91905.81;;;22.22;78.21
37206;BME280;23099;42.636;23.198;2022-08-25T08:11:24;91910.81;;;22.23;76.80
37206;BME280;23099;42.636;23.198;2022-08-25T08:13:52;91911.72;;;22.20;77.43
37206;BME280;23099;42.636;23.198;2022-08-25T08:16:21;91904.75;;;22.19;77.25
37206;BME280;23099;42.636;23.198;2022-08-25T08:18:48;91909.28;;;22.10;77.46
37206;BME280;23099;42.636;23.198;2022-08-25T08:21:19;91898.19;;;22.04;77.67
37206;BME280;23099;42.636;23.198;2022-08-25T08:23:46;91886.44;;;22.07;78.44
37206;BME280;23099;42.636;23.198;2022-08-25T08:26:13;91887.50;;;22.10;76.83
37206;BME280;23099;42.636;23.198;2022-08-25T08:28:41;91888.50;;;22.03;76.64
37206;BME280;23099;42.636;23.198;2022-08-25T08:31:08;91882.06;;;22.10;77.13
37206;BME280;23099;42.636;23.198;2022-08-25T08:33:35;91891.44;;;22.09;76.68
37206;BME280;23099;42.636;23.198;2022-08-25T08:36:04;91895.69;;;22.10;76.86
37206;BME280;23099;42.636;23.198;2022-08-25T08:38:32;91902.88;;;22.16;77.86
37206;BME280;23099;42.636;23.198;2022-08-25T08:41:02;91888.09;;;22.17;77.63
37206;BME280;23099;42.636;23.198;2022-08-25T08:43:55;91893.63;;;22.14;77.58
37206;BME280;23099;42.636;23.198;2022-08-25T08:46:35;91892.00;;;22.16;76.81
37206;BME280;23099;42.636;23.198;2022-08-25T08:49:10;91895.16;;;22.15;77.14
37206;BME280;23099;42.636;23.198;2022-08-25T08:51:47;91887.97;;;22.21;77.43
37206;BME280;23099;42.636;23.198;2022-08-25T08:54:22;91888.31;;;22.36;78.53
37206;BME280;23099;42.636;23.198;2022-08-25T08:56:57;91886.19;;;22.52;75.94
37206;BME280;23099;42.636;23.198;2022-08-25T08:59:46;91883.44;;;22.65;77.31
37206;BME280;23099;42.636;23.198;2022-08-25T09:02:22;91878.22;;;22.83;74.00
37206;BME280;23099;42.636;23.198;2022-08-25T09:04:53;91879.72;;;22.97;74.87
37206;BME280;23099;42.636;23.198;2022-08-25T09:07:24;91883.59;;;23.09;73.14
37206;BME280;23099;42.636;23.198;2022-08-25T09:09:53;91885.78;;;23.14;73.13
37206;BME280;23099;42.636;23.198;2022-08-25T09:12:25;91883.69;;;23.18;72.38
37206;BME280;23099;42.636;23.198;2022-08-25T09:15:06;91889.47;;;23.20;71.11
37206;BME280;23099;42.636;23.198;2022-08-25T09:17:53;91878.75;;;23.25;73.93
37206;BME280;23099;42.636;23.198;2022-08-25T09:20:32;91888.53;;;23.36;69.43
37206;BME280;23099;42.636;23.198;2022-08-25T09:23:06;91889.81;;;23.44;67.57
37206;BME280;23099;42.636;23.198;2022-08-25T09:25:43;91875.03;;;23.54;66.81
37206;BME280;23099;42.636;23.198;2022-08-25T09:28:18;91881.13;;;23.58;69.12
37206;BME280;23099;42.636;23.198;2022-08-25T09:30:52;91872.72;;;23.65;68.72
37206;BME280;23099;42.636;23.198;2022-08-25T09:33:22;91876.69;;;23.73;66.07
37206;BME280;23099;42.636;23.198;2022-08-25T09:35:51;91870.78;;;23.75;65.75
37206;BME280;23099;42.636;23.198;2022-08-25T09:38:18;91867.44;;;23.71;67.95
37206;BME280;23099;42.636;23.198;2022-08-25T09:40:48;91866.97;;;23.72;63.87
37206;BME280;23099;42.636;23.198;2022-08-25T09:43:20;91867.19;;;23.78;63.45
37206;BME280;23099;42.636;23.198;2022-08-25T09:45:57;91864.28;;;23.81;63.44
37206;BME280;23099;42.636;23.198;2022-08-25T09:48:26;91866.41;;;23.77;64.67
37206;BME280;23099;42.636;23.198;2022-08-25T09:50:57;91860.19;;;23.77;65.35
37206;BME280;23099;42.636;23.198;2022-08-25T09:53:26;91861.72;;;23.78;66.84
37206;BME280;23099;42.636;23.198;2022-08-25T09:55:59;91866.66;;;23.92;63.85
37206;BME280;23099;42.636;23.198;2022-08-25T09:58:29;91862.72;;;23.93;64.64
37206;BME280;23099;42.636;23.198;2022-08-25T10:01:10;91864.47;;;24.09;65.79
37206;BME280;23099;42.636;23.198;2022-08-25T10:03:52;91869.00;;;24.12;64.50
37206;BME280;23099;42.636;23.198;2022-08-25T10:06:20;91858.09;;;24.12;63.19
37206;BME280;23099;42.636;23.198;2022-08-25T10:08:50;91873.47;;;23.96;64.10
37206;BME280;23099;42.636;23.198;2022-08-25T10:11:30;91865.47;;;24.02;63.83
37206;BME280;23099;42.636;23.198;2022-08-25T10:14:02;91863.41;;;24.15;64.43
37206;BME280;23099;42.636;23.198;2022-08-25T10:16:31;91860.47;;;24.31;63.73
37206;BME280;23099;42.636;23.198;2022-08-25T10:19:04;91867.47;;;24.33;61.67
37206;BME280;23099;42.636;23.198;2022-08-25T10:21:32;91856.84;;;24.35;63.38
37206;BME280;23099;42.636;23.198;2022-08-25T10:23:59;91850.94;;;24.36;59.58
37206;BME280;23099;42.636;23.198;2022-08-25T10:26:35;91849.16;;;24.51;62.14
37206;BME280;23099;42.636;23.198;2022-08-25T10:29:13;91857.88;;;24.77;59.45
37206;BME280;23099;42.636;23.198;2022-08-25T10:31:47;91857.03;;;24.98;60.04
37206;BME280;23099;42.636;23.198;2022-08-25T10:34:24;91852.03;;;25.06;59.33
37206;BME280;23099;42.636;23.198;2022-08-25T10:37:02;91848.69;;;25.29;57.30
37206;BME280;23099;42.636;23.198;2022-08-25T10:39:38;91852.78;;;25.34;55.82
37206;BME280;23099;42.636;23.198;2022-08-25T10:42:30;91845.19;;;25.47;58.09
37206;BME280;23099;42.636;23.198;2022-08-25T10:45:09;91831.94;;;25.55;55.96
37206;BME280;23099;42.636;23.198;2022-08-25T10:48:24;91833.16;;;25.72;54.00
37206;BME280;23099;42.636;23.198;2022-08-25T10:50:58;91832.38;;;25.90;53.90
37206;BME280;23099;42.636;23.198;2022-08-25T10:53:32;91820.31;;;26.05;53.86
37206;BME280;23099;42.636;23.198;2022-08-25T10:56:06;91829.97;;;26.34;53.70
37206;BME280;23099;42.636;23.198;2022-08-25T10:58:51;91820.91;;;26.42;50.38
37206;BME280;23099;42.636;23.198;2022-08-25T11:01:34;91823.13;;;26.62;47.78
37206;BME280;23099;42.636;23.198;2022-08-25T11:04:07;91820.97;;;26.90;47.97
37206;BME280;23099;42.636;23.198;2022-08-25T11:06:39;91817.41;;;26.99;47.30
37206;BME280;23099;42.636;23.198;2022-08-25T11:09:08;91811.22;;;27.13;48.62
37206;BME280;23099;42.636;23.198;2022-08-25T11:11:39;91813.53;;;27.29;46.83
37206;BME280;23099;42.636;23.198;2022-08-25T11:14:11;91811.19;;;27.37;48.84
37206;BME280;23099;42.636;23.198;2022-08-25T11:16:46;91810.81;;;27.44;46.45
37206;BME280;23099;42.636;23.198;2022-08-25T11:19:20;91801.03;;;27.67;47.62
37206;BME280;23099;42.636;23.198;2022-08-25T11:21:52;91797.44;;;27.90;47.51
37206;BME280;23099;42.636;23.198;2022-08-25T11:24:31;91805.66;;;28.05;46.74
37206;BME280;23099;42.636;23.198;2022-08-25T11:27:03;91789.28;;;27.96;45.51
37206;BME280;23099;42.636;23.198;2022-08-25T11:29:34;91796.94;;;28.06;46.84
37206;BME280;23099;42.636;23.198;2022-08-25T11:32:03;91795.81;;;28.13;42.60
37206;BME280;23099;42.636;23.198;2022-08-25T11:34:34;91786.53;;;28.25;47.54
37206;BME280;23099;42.636;23.198;2022-08-25T11:37:05;91788.88;;;28.32;43.59
37206;BME280;23099;42.636;23.198;2022-08-25T11:40:02;91792.91;;;28.52;45.89
37206;BME280;23099;42.636;23.198;2022-08-25T11:42:38;91792.38;;;28.68;44.62
37206;BME280;23099;42.636;23.198;2022-08-25T11:45:22;91783.00;;;28.39;42.54
37206;BME280;23099;42.636;23.198;2022-08-25T11:48:05;91782.09;;;28.28;42.84
37206;BME280;23099;42.636;23.198;2022-08-25T11:50:56;91778.19;;;28.20;44.47
37206;BME280;23099;42.636;23.198;2022-08-25T11:53:25;91779.69;;;28.35;43.08
37206;BME280;23099;42.636;23.198;2022-08-25T11:55:54;91784.13;;;28.33;44.03
37206;BME280;23099;42.636;23.198;2022-08-25T11:58:41;91781.72;;;27.91;44.09
37206;BME280;23099;42.636;23.198;2022-08-25T12:01:13;91781.53;;;27.79;45.09
37206;BME280;23099;42.636;23.198;2022-08-25T12:04:14;91784.91;;;27.89;45.38
37206;BME280;23099;42.636;23.198;2022-08-25T12:10:15;91781.97;;;28.07;43.77
37206;BME280;23099;42.636;23.198;2022-08-25T12:12:59;91783.38;;;28.32;44.40
37206;BME280;23099;42.636;23.198;2022-08-25T12:15:27;91772.34;;;28.47;44.08
37206;BME280;23099;42.636;23.198;2022-08-25T12:18:12;91777.78;;;28.62;43.33
37206;BME280;23099;42.636;23.198;2022-08-25T12:21:11;91783.66;;;28.69;43.15
37206;BME280;23099;42.636;23.198;2022-08-25T12:23:40;91776.28;;;28.61;44.05
37206;BME280;23099;42.636;23.198;2022-08-25T12:26:17;91782.72;;;28.58;42.74
37206;BME280;23099;42.636;23.198;2022-08-25T12:28:58;91780.19;;;28.19;45.15
37206;BME280;23099;42.636;23.198;2022-08-25T12:31:43;91785.31;;;27.82;43.67
37206;BME280;23099;42.636;23.198;2022-08-25T12:34:29;91779.34;;;27.84;44.71
37206;BME280;23099;42.636;23.198;2022-08-25T12:37:04;91785.41;;;27.58;43.89
37206;BME280;23099;42.636;23.198;2022-08-25T12:39:42;91787.75;;;27.51;44.48
37206;BME280;23099;42.636;23.198;2022-08-25T12:42:22;91784.53;;;27.52;45.97
37206;BME280;23099;42.636;23.198;2022-08-25T12:51:25;91781.97;;;26.86;45.72
37206;BME280;23099;42.636;23.198;2022-08-25T12:53:58;91778.16;;;26.69;45.80
37206;BME280;23099;42.636;23.198;2022-08-25T12:56:30;91791.91;;;26.60;48.36
37206;BME280;23099;42.636;23.198;2022-08-25T12:59:09;91797.00;;;26.52;48.09
37206;BME280;23099;42.636;23.198;2022-08-25T13:01:54;91792.25;;;26.53;50.23
37206;BME280;23099;42.636;23.198;2022-08-25T13:04:41;91783.31;;;26.43;48.16
37206;BME280;23099;42.636;23.198;2022-08-25T13:07:23;91790.91;;;26.48;46.03
37206;BME280;23099;42.636;23.198;2022-08-25T13:10:19;91784.22;;;26.49;47.39
37206;BME280;23099;42.636;23.198;2022-08-25T13:12:58;91783.78;;;26.41;46.71
37206;BME280;23099;42.636;23.198;2022-08-25T13:15:38;91785.66;;;26.35;47.85
37206;BME280;23099;42.636;23.198;2022-08-25T13:18:13;91796.16;;;26.37;46.63
37206;BME280;23099;42.636;23.198;2022-08-25T13:20:40;91797.56;;;26.23;48.09